Flight Track Log - Related Links

Times and Time Zones

All times are in EDT time to prevent confusion due to time zone crossing. See the ASQ5738 flight status page for this flight to view local times or setup timezone preferences in your user account.

Time Position Orientation Groundspeed Altitude Reporting Facility
EDT Latitude Longitude Course Direction KTS MPH feet Rate Location/Type
Mon 12:20:11 PM 38.9667 -77.5333 123° Southeast 217 250 1,600  Level Potomac TRACON
Mon 12:21:18 PM 39.0333 -77.5833 330° Northwest 282 325 4,900 2,826 Climbing Potomac TRACON
Mon 12:22:00 PM 38.6852 -77.5810 128° Southeast  Level Estimated
Mon 12:22:12 PM 39.1000 -77.5667 11° North 296 341 7,300  Level Potomac TRACON
Mon 12:23:00 PM 38.5978 -77.6212 123° Southeast  Level Estimated
Mon 12:23:12 PM 39.1333 -77.4833 63° Northeast 286 329 9,700  Level Potomac TRACON
Mon 12:24:00 PM 38.5103 -77.6613 128° Southeast  Level Estimated
Mon 12:24:06 PM 39.1500 -77.3833 78° East 319 367 9,900  Level Potomac TRACON
Mon 12:25:00 PM 38.4229 -77.7012 123° Southeast  Level Estimated
Mon 12:25:06 PM 39.1333 -77.2667 100° East 351 404 10,000  Level Potomac TRACON
Mon 12:26:06 PM 39.1000 -77.1500 110° East 367 422 11,000 1,500 Climbing Potomac TRACON
Mon 12:27:06 PM 39.0333 -77.0333 126° Southeast 367 422 13,000 2,050 Climbing Potomac TRACON
Mon 12:28:06 PM 38.9500 -76.9833 155° Southeast 354 407 15,100 1,581 Climbing Potomac TRACON
Mon 12:29:53 PM 38.7939 -76.8808 153° Southeast 405 466 17,400 1,150 Climbing Washington Center
Mon 12:30:53 PM 38.7008 -76.8206 153° Southeast 381 438 18,300 1,008 Climbing Washington Center
Mon 12:31:52 PM 38.6075 -76.7606 153° Southeast 376 433 19,400 1,109 Climbing Washington Center
Mon 12:32:52 PM 38.5056 -76.7244 165° South 376 433 20,500 1,091 Climbing Washington Center
Mon 12:33:53 PM 38.3994 -76.7069 173° South 381 438 21,600 1,082 Climbing Washington Center
Mon 12:34:54 PM 38.2933 -76.6897 173° South 387 445 22,700 1,091 Climbing Washington Center
Mon 12:35:54 PM 38.1914 -76.6750 174° South 387 445 23,800 1,100 Climbing Washington Center
Mon 12:36:54 PM 38.0850 -76.6628 175° South 387 445 24,900 1,119 Climbing Washington Center
Mon 12:37:52 PM 37.9808 -76.6481 174° South 387 445 26,000 1,109 Climbing Washington Center
Mon 12:38:53 PM 37.8786 -76.6572 184° South 381 438 27,100 934 Climbing Washington Center
Mon 12:39:54 PM 37.7783 -76.6689 185° South 376 433 27,900 397 Climbing Washington Center
Mon 12:40:54 PM 37.6781 -76.6808 185° South 371 427 27,900  Level Washington Center
Mon 12:41:52 PM 37.5736 -76.6950 186° South 371 427 27,900  Level Washington Center
Mon 12:42:53 PM 37.4694 -76.7092 186° South 371 427 27,900  Level Washington Center
Mon 12:43:54 PM 37.3647 -76.7442 195° South 376 433 27,900  Level Washington Center
Mon 12:44:52 PM 37.2747 -76.7819 198° South 376 433 27,900  Level Washington Center
Mon 12:45:53 PM 37.1719 -76.8247 198° South 381 438 27,900  Level Washington Center
Mon 12:46:54 PM 37.0714 -76.8675 199° South 388 447 27,900  Level Washington Center
Mon 12:47:52 PM 36.9708 -76.9100 199° South 388 447 27,900  Level Washington Center
Mon 12:48:52 PM 36.8703 -76.9522 199° South 388 447 27,900  Level Washington Center
Mon 12:49:54 PM 36.7675 -76.9947 198° South 388 447 27,900  Level Washington Center
Mon 12:50:55 PM 36.6689 -77.0342 198° South 388 447 27,900  Level Washington Center
Mon 12:51:53 PM 36.5706 -77.0739 198° South 388 447 27,900  Level Washington Center
Mon 12:52:53 PM 36.4678 -77.1183 199° South 388 447 27,900  Level Washington Center
Mon 12:53:53 PM 36.3669 -77.1603 199° South 388 447 27,900  Level Washington Center
Mon 12:54:54 PM 36.2536 -77.2069 198° South 388 447 27,900  Level Washington Center
Mon 12:55:54 PM 36.1550 -77.2436 197° South 388 447 27,900  Level Washington Center
Mon 12:56:55 PM 36.0522 -77.2850 198° South 381 438 27,900  Level Washington Center
Mon 12:57:52 PM 35.9514 -77.3292 200° South 386 444 27,900  Level Washington Center
Mon 12:58:52 PM 35.8486 -77.3706 198° South 386 444 27,900  Level Washington Center
Mon 12:59:53 PM 35.7600 -77.4400 212° Southwest 381 438 27,900  Level Washington Center
Mon 01:00:53 PM 35.6711 -77.5147 214° Southwest 381 438 27,900  Level Washington Center
Mon 01:01:54 PM 35.5844 -77.5892 215° Southwest 387 445 27,900  Level Washington Center
Mon 01:02:54 PM 35.4978 -77.6611 214° Southwest 387 445 27,900  Level Washington Center
Mon 01:03:52 PM 35.4086 -77.7353 214° Southwest 387 445 27,900  Level Washington Center
Mon 01:04:53 PM 35.3325 -77.7994 215° Southwest 387 445 27,900  Level Washington Center
Mon 01:05:54 PM 35.2433 -77.8708 213° Southwest 387 445 27,900  Level Washington Center
Mon 01:06:53 PM 35.1564 -77.9444 215° Southwest 387 445 27,900  Level Washington Center
Mon 01:07:53 PM 35.0672 -78.0206 215° Southwest 387 445 27,900  Level Washington Center
Mon 01:08:54 PM 34.9822 -78.0942 215° Southwest 387 445 27,900  Level Washington Center
Mon 01:09:52 PM 34.8933 -78.1647 213° Southwest 387 445 27,900  Level Washington Center
Mon 01:10:53 PM 34.8017 -78.2478 217° Southwest 387 445 27,900  Level Washington Center
Mon 01:11:54 PM 34.7103 -78.3206 213° Southwest 387 445 27,900  Level Washington Center
Mon 01:13:27 PM 34.5875 -78.4239 215° Southwest 388 447 27,900  Level Jacksonville Center
Mon 01:14:27 PM 34.4822 -78.5125 215° Southwest 388 447 27,900  Level Jacksonville Center
Mon 01:15:27 PM 34.3928 -78.5822 213° Southwest 388 447 27,900 -99 Level Jacksonville Center
Mon 01:16:28 PM 34.3017 -78.6597 215° Southwest 393 452 27,700 -600 Descending Jacksonville Center
Mon 01:17:27 PM 34.2211 -78.7489 222° Southwest 398 458 26,700 -1,059 Descending Jacksonville Center
Mon 01:18:27 PM 34.1325 -78.8486 223° Southwest 419 482 25,600 -1,050 Descending Jacksonville Center
Mon 01:19:27 PM 34.0431 -78.9253 215° Southwest 424 488 24,600 -950 Descending Jacksonville Center
Mon 01:20:27 PM 33.9539 -79.0044 216° Southwest 417 480 23,700 -950 Descending Jacksonville Center
Mon 01:21:27 PM 33.8644 -79.0786 215° Southwest 399 459 22,700 -1,000 Descending Jacksonville Center
Mon 01:22:27 PM 33.7808 -79.1522 216° Southwest 393 452 21,700 -1,100 Descending Jacksonville Center
Mon 01:23:27 PM 33.7139 -79.2125 217° Southwest 387 445 20,500 -1,650 Descending Jacksonville Center
Mon 01:24:27 PM 33.6367 -79.2878 219° Southwest 366 421 18,400 -1,950 Descending Jacksonville Center
Mon 01:25:27 PM 33.5658 -79.3631 222° Southwest 348 400 16,600 -1,850 Descending Jacksonville Center
Mon 01:26:27 PM 33.4928 -79.4358 220° Southwest 343 395 14,700 -1,900 Descending Jacksonville Center
Mon 01:27:27 PM 33.4217 -79.5081 220° Southwest 343 395 12,800 -1,850 Descending Jacksonville Center
Mon 01:28:27 PM 33.3589 -79.5828 225° Southwest 343 395 11,000 -1,250 Descending Jacksonville Center
Mon 01:29:27 PM 33.3086 -79.6542 230° Southwest 311 358 10,300 -450 Descending Jacksonville Center
Mon 01:30:27 PM 33.2683 -79.7103 229° Southwest 269 310 10,100 -800 Descending Jacksonville Center
Mon 01:31:27 PM 33.2256 -79.7514 219° Southwest 226 260 8,700 -1,300 Descending Jacksonville Center
Mon 01:32:27 PM 33.1997 -79.8044 240° Southwest 196 226 7,500 -1,250 Descending Jacksonville Center
Mon 01:33:27 PM 33.1781 -79.8575 244° Southwest 183 211 6,200 -1,250 Descending Jacksonville Center
Mon 01:34:27 PM 33.1372 -79.8936 217° Southwest 177 204 5,000 -1,200 Descending Jacksonville Center
Mon 01:35:27 PM 33.0983 -79.9269 216° Southwest 177 204 3,800 -1,200 Descending Jacksonville Center

Login

Don't have an account? Register now (free) for customized features, flight alerts, and more!